Time;durP1;ratioP1;P1;durP2;ratioP2;P2;SDS_P1;SDS_P2;PMS_P1;PMS_P2;Temp;Humidity;BMP_temperature;BMP_pressure;BME280_temperature;BME280_humidity;BME280_pressure;Samples;Min_cycle;Max_cycle;Signal;HPM_P1;HPM_P2
2021/10/06 00:02:06;;;;;;;7.00;3.17;;;10.90;99.90;;;;;;5053355;28;20095;-67
2021/10/06 00:04:32;;;;;;;11.05;3.03;;;10.90;99.90;;;;;;5054917;28;20123;-67
2021/10/06 00:06:57;;;;;;;11.10;3.50;;;10.90;99.90;;;;;;5057860;28;20036;-67
2021/10/06 00:09:23;;;;;;;9.90;3.35;;;10.90;99.90;;;;;;5050199;28;20052;-67
2021/10/06 00:11:49;;;;;;;9.93;2.90;;;10.90;99.90;;;;;;5058107;28;20041;-67
2021/10/06 00:14:15;;;;;;;10.02;3.42;;;10.90;99.90;;;;;;5005516;28;20076;-67
2021/10/06 00:16:41;;;;;;;8.90;2.72;;;10.90;99.90;;;;;;5053461;28;20033;-67
2021/10/06 00:19:07;;;;;;;8.48;2.92;;;10.90;99.90;;;;;;5076733;28;20039;-68
2021/10/06 00:21:33;;;;;;;9.25;2.63;;;10.80;99.90;;;;;;5044507;28;20037;-68
2021/10/06 00:23:59;;;;;;;10.23;3.28;;;10.80;99.90;;;;;;5047019;28;20036;-68
2021/10/06 00:26:25;;;;;;;7.47;3.13;;;10.80;99.90;;;;;;5071527;28;20415;-67
2021/10/06 00:28:50;;;;;;;11.02;2.85;;;10.80;99.90;;;;;;5062446;28;20040;-67
2021/10/06 00:31:16;;;;;;;9.23;2.78;;;10.80;99.90;;;;;;5037339;28;20051;-67
2021/10/06 00:33:42;;;;;;;7.82;2.33;;;10.90;99.90;;;;;;5067228;28;20052;-67
2021/10/06 00:36:09;;;;;;;9.77;2.45;;;10.80;99.90;;;;;;5059549;28;20045;-68
2021/10/06 00:38:35;;;;;;;7.20;1.92;;;10.90;99.90;;;;;;5064157;28;20097;-68
2021/10/06 00:41:02;;;;;;;6.00;2.10;;;10.80;99.90;;;;;;5051858;28;20036;-68
2021/10/06 00:43:28;;;;;;;5.68;1.95;;;10.80;99.90;;;;;;5069143;28;20045;-68
2021/10/06 00:45:55;;;;;;;7.22;2.10;;;10.80;99.90;;;;;;5039060;28;20041;-68
2021/10/06 00:48:21;;;;;;;6.85;2.35;;;10.70;99.90;;;;;;5062065;28;20077;-68
2021/10/06 00:50:46;;;;;;;7.65;1.95;;;10.70;99.90;;;;;;5055690;28;20139;-68
2021/10/06 00:53:12;;;;;;;5.05;1.88;;;10.70;99.90;;;;;;5057767;28;20043;-68
2021/10/06 00:55:38;;;;;;;7.95;2.10;;;10.70;99.90;;;;;;5039633;28;20040;-68
2021/10/06 00:58:04;;;;;;;7.80;2.55;;;10.70;99.90;;;;;;5057593;28;20041;-68
2021/10/06 01:00:30;;;;;;;7.20;2.40;;;10.70;99.90;;;;;;5035201;28;20420;-67
2021/10/06 01:02:56;;;;;;;8.00;2.38;;;10.70;99.90;;;;;;5061595;28;20033;-67
2021/10/06 01:05:22;;;;;;;6.13;2.15;;;10.70;99.90;;;;;;5055756;28;20120;-67
2021/10/06 01:07:48;;;;;;;5.80;1.85;;;10.70;99.90;;;;;;5054929;28;20041;-67
2021/10/06 01:10:14;;;;;;;7.32;2.30;;;10.70;99.90;;;;;;5061920;28;20049;-67
2021/10/06 01:12:40;;;;;;;6.45;1.98;;;10.70;99.90;;;;;;5042311;28;20059;-68
2021/10/06 01:15:09;;;;;;;9.13;3.08;;;10.70;99.90;;;;;;5061342;28;20495;-68
2021/10/06 01:17:35;;;;;;;5.90;1.90;;;10.70;99.90;;;;;;5053796;28;20090;-67
2021/10/06 01:20:01;;;;;;;5.45;1.80;;;10.80;99.90;;;;;;5054839;28;20040;-67
2021/10/06 01:22:27;;;;;;;7.85;2.45;;;10.80;99.90;;;;;;5057733;28;20043;-67
2021/10/06 01:24:53;;;;;;;7.85;2.08;;;10.70;99.90;;;;;;5039460;28;20037;-67
2021/10/06 01:27:18;;;;;;;5.63;2.00;;;10.70;99.90;;;;;;5021819;28;20049;-67
2021/10/06 01:29:44;;;;;;;6.63;2.03;;;10.70;99.90;;;;;;5039563;28;20052;-67
2021/10/06 01:32:18;;;;;;;5.45;2.35;;;10.70;99.90;;;;;;5035939;28;20088;-67
2021/10/06 01:34:58;;;;;;;5.37;1.93;;;10.70;99.90;;;;;;5069023;28;20041;-67
2021/10/06 01:37:24;;;;;;;6.00;1.85;;;10.70;99.90;;;;;;5060204;28;20058;-68
2021/10/06 01:39:50;;;;;;;7.60;2.33;;;10.70;99.90;;;;;;5062076;28;20605;-67
2021/10/06 01:42:16;;;;;;;6.07;2.20;;;10.60;99.90;;;;;;5020156;28;20037;-68
2021/10/06 01:44:42;;;;;;;6.05;2.05;;;10.70;99.90;;;;;;5049369;28;20048;-68
2021/10/06 01:47:08;;;;;;;5.10;2.17;;;10.70;99.90;;;;;;5059038;28;20479;-68
2021/10/06 01:49:33;;;;;;;5.63;2.20;;;10.70;99.90;;;;;;5072151;28;20048;-68
2021/10/06 01:51:59;;;;;;;6.80;2.17;;;10.70;99.90;;;;;;5059433;28;20260;-67
2021/10/06 01:54:25;;;;;;;6.05;2.35;;;10.60;99.90;;;;;;5045581;28;20078;-68
2021/10/06 01:56:50;;;;;;;6.18;2.25;;;10.60;99.90;;;;;;5037934;28;20041;-68
2021/10/06 01:59:16;;;;;;;5.93;2.20;;;10.60;99.90;;;;;;5053765;28;20424;-67
2021/10/06 02:01:42;;;;;;;7.60;2.33;;;10.60;99.90;;;;;;5079230;28;20033;-67
2021/10/06 02:04:08;;;;;;;4.13;2.10;;;10.60;99.90;;;;;;5054402;28;20051;-68
2021/10/06 02:06:34;;;;;;;9.55;2.60;;;10.50;99.90;;;;;;5062788;28;20068;-67
2021/10/06 02:09:00;;;;;;;8.35;2.85;;;10.50;99.90;;;;;;5050570;28;20083;-68
2021/10/06 02:11:25;;;;;;;7.60;3.08;;;10.50;99.90;;;;;;5045190;28;20076;-67
2021/10/06 02:13:51;;;;;;;9.45;3.28;;;10.50;99.90;;;;;;5054662;28;20474;-67
2021/10/06 02:16:18;;;;;;;10.25;3.35;;;10.40;99.90;;;;;;5042896;28;20182;-67
2021/10/06 02:18:44;;;;;;;6.93;3.38;;;10.40;99.90;;;;;;5052083;28;20029;-68
2021/10/06 02:21:10;;;;;;;7.13;3.88;;;10.40;99.90;;;;;;5039466;28;20521;-67
2021/10/06 02:23:35;;;;;;;9.48;3.85;;;10.40;99.90;;;;;;5052110;28;20037;-68
2021/10/06 02:26:01;;;;;;;9.77;4.20;;;10.30;99.90;;;;;;5038588;28;20120;-67
2021/10/06 02:28:27;;;;;;;5.45;4.25;;;10.30;99.90;;;;;;5052889;28;20127;-67
2021/10/06 02:30:52;;;;;;;8.48;4.82;;;10.30;99.90;;;;;;5054481;28;20569;-68
2021/10/06 02:33:18;;;;;;;9.82;4.70;;;10.40;99.90;;;;;;5055269;28;20048;-67
2021/10/06 02:35:44;;;;;;;11.02;5.50;;;10.30;99.90;;;;;;5056343;28;20120;-67
2021/10/06 02:38:10;;;;;;;8.85;5.53;;;10.30;99.90;;;;;;5057954;28;20473;-67
2021/10/06 02:40:36;;;;;;;9.93;5.43;;;10.30;99.90;;;;;;5053366;28;20101;-68
2021/10/06 02:43:02;;;;;;;10.35;5.65;;;10.30;99.90;;;;;;5055396;28;20040;-68
2021/10/06 02:45:27;;;;;;;11.25;5.45;;;10.30;99.90;;;;;;5052623;28;20127;-67
2021/10/06 02:47:53;;;;;;;11.68;5.53;;;10.30;99.90;;;;;;5061540;28;20048;-68
2021/10/06 02:50:22;;;;;;;10.02;6.25;;;10.40;99.90;;;;;;5053064;28;20488;-68
2021/10/06 02:52:49;;;;;;;12.50;5.47;;;10.40;99.90;;;;;;5057174;28;20412;-68
2021/10/06 02:55:14;;;;;;;10.88;5.50;;;10.40;99.90;;;;;;5049679;28;20122;-68
2021/10/06 02:57:40;;;;;;;13.07;5.25;;;10.40;99.90;;;;;;5069705;28;20387;-68
2021/10/06 03:00:10;;;;;;;8.30;5.35;;;10.50;99.90;;;;;;5031181;28;20393;-68
2021/10/06 03:02:39;;;;;;;11.02;4.75;;;10.50;99.90;;;;;;5060913;28;20041;-68
2021/10/06 03:05:06;;;;;;;11.57;5.30;;;10.60;99.90;;;;;;5057281;28;20075;-68
2021/10/06 03:07:31;;;;;;;9.93;4.97;;;10.60;99.90;;;;;;5059388;28;20049;-68
2021/10/06 03:09:57;;;;;;;10.68;5.05;;;10.60;99.90;;;;;;5080063;28;20170;-68
2021/10/06 03:12:23;;;;;;;8.85;5.10;;;10.60;99.90;;;;;;5063674;28;20041;-68
2021/10/06 03:14:48;;;;;;;9.00;4.60;;;10.60;99.90;;;;;;5062130;28;20040;-68
2021/10/06 03:17:14;;;;;;;11.32;4.78;;;10.60;99.90;;;;;;5070340;28;20040;-68
2021/10/06 03:19:40;;;;;;;11.07;4.50;;;10.70;99.90;;;;;;5055167;28;20044;-68
2021/10/06 03:22:05;;;;;;;9.32;4.22;;;10.70;99.90;;;;;;5033621;28;20036;-68
2021/10/06 03:24:31;;;;;;;9.18;4.28;;;10.80;99.90;;;;;;5053859;28;20098;-68
2021/10/06 03:26:57;;;;;;;8.30;4.22;;;10.80;99.90;;;;;;5040330;28;20080;-68
2021/10/06 03:29:23;;;;;;;11.82;4.00;;;10.80;99.90;;;;;;5040904;28;20124;-68
2021/10/06 03:31:48;;;;;;;8.07;3.67;;;10.70;99.90;;;;;;5051523;28;20491;-67
2021/10/06 03:34:14;;;;;;;11.18;3.92;;;10.80;99.90;;;;;;5069182;28;20127;-68
2021/10/06 03:36:40;;;;;;;6.93;3.80;;;10.80;99.90;;;;;;5049310;28;20036;-68
2021/10/06 03:39:05;;;;;;;10.00;3.05;;;10.80;99.90;;;;;;5058631;28;20037;-68
2021/10/06 03:41:31;;;;;;;7.72;3.70;;;10.80;99.90;;;;;;5057179;28;20346;-68
2021/10/06 03:43:57;;;;;;;10.02;3.20;;;10.90;99.90;;;;;;5059357;28;20036;-67
2021/10/06 03:46:22;;;;;;;8.48;3.42;;;10.80;99.90;;;;;;5066628;28;20564;-67
2021/10/06 03:48:51;;;;;;;6.28;2.70;;;10.80;99.90;;;;;;5033803;28;20103;-67
2021/10/06 03:51:17;;;;;;;7.90;3.30;;;10.80;99.90;;;;;;5055824;28;20041;-67
2021/10/06 03:53:43;;;;;;;9.40;2.60;;;10.80;99.90;;;;;;5041886;28;20046;-68
2021/10/06 03:56:08;;;;;;;7.55;2.72;;;10.90;99.90;;;;;;5048721;28;20119;-68
2021/10/06 03:58:34;;;;;;;7.72;2.60;;;10.80;99.90;;;;;;5052552;28;20037;-68
2021/10/06 04:01:00;;;;;;;9.85;2.38;;;10.80;99.90;;;;;;5051495;28;20029;-68
2021/10/06 04:03:26;;;;;;;5.93;2.30;;;10.80;99.90;;;;;;5031461;28;20055;-68
2021/10/06 04:05:52;;;;;;;5.43;2.58;;;10.80;99.90;;;;;;5053402;28;20036;-68
2021/10/06 04:08:17;;;;;;;6.28;1.90;;;10.80;99.90;;;;;;5048669;28;20045;-67
2021/10/06 04:10:43;;;;;;;7.05;2.10;;;10.70;99.90;;;;;;5050880;28;20041;-66
2021/10/06 04:13:09;;;;;;;8.57;2.35;;;10.80;99.90;;;;;;5033255;28;20040;-66
2021/10/06 04:15:35;;;;;;;5.45;2.00;;;10.80;99.90;;;;;;5057398;28;20065;-66
2021/10/06 04:18:04;;;;;;;7.43;2.28;;;10.80;99.90;;;;;;5060521;28;20151;-67
2021/10/06 04:20:30;;;;;;;6.28;2.60;;;10.80;99.90;;;;;;5051398;28;20044;-67
2021/10/06 04:22:56;;;;;;;7.20;2.42;;;10.80;99.90;;;;;;5065578;28;20032;-67
2021/10/06 04:25:21;;;;;;;4.30;2.42;;;10.80;99.90;;;;;;5051206;28;20394;-67
2021/10/06 04:27:47;;;;;;;8.32;3.00;;;10.80;99.90;;;;;;5065880;28;20445;-67
2021/10/06 04:30:13;;;;;;;7.60;2.67;;;10.70;99.90;;;;;;5046364;28;20124;-67
2021/10/06 04:32:39;;;;;;;6.47;2.95;;;10.70;99.90;;;;;;5053839;28;20056;-67
2021/10/06 04:35:06;;;;;;;5.88;2.60;;;10.80;99.90;;;;;;5034446;28;20120;-68
2021/10/06 04:37:32;;;;;;;6.03;2.78;;;10.80;99.90;;;;;;5050031;28;20041;-67
2021/10/06 04:39:57;;;;;;;7.20;2.88;;;10.80;99.90;;;;;;5049421;28;20052;-68
2021/10/06 04:42:23;;;;;;;9.88;3.22;;;10.80;99.90;;;;;;5072760;28;20056;-68
2021/10/06 04:44:49;;;;;;;5.78;3.15;;;10.80;99.90;;;;;;5057658;28;20052;-67
2021/10/06 04:47:15;;;;;;;7.70;3.60;;;10.80;99.90;;;;;;5045832;28;20527;-67
2021/10/06 04:49:40;;;;;;;8.27;3.63;;;10.80;99.90;;;;;;5053981;28;20037;-68
2021/10/06 04:52:06;;;;;;;8.10;3.78;;;10.80;99.90;;;;;;5060228;28;20036;-67
2021/10/06 04:54:32;;;;;;;9.32;3.45;;;10.80;99.90;;;;;;5038318;28;23336;-68
2021/10/06 04:56:57;;;;;;;9.48;3.35;;;10.80;99.90;;;;;;5052674;28;20052;-67
2021/10/06 04:59:23;;;;;;;8.55;3.95;;;10.80;99.90;;;;;;5061056;28;20476;-67
2021/10/06 05:01:49;;;;;;;8.80;3.60;;;10.80;99.90;;;;;;5034567;28;20287;-68
2021/10/06 05:04:14;;;;;;;10.50;4.25;;;10.80;99.90;;;;;;5049303;28;20095;-68
2021/10/06 05:06:40;;;;;;;8.90;4.25;;;10.80;99.90;;;;;;5047927;28;20115;-68
2021/10/06 05:09:06;;;;;;;7.57;4.60;;;10.80;99.90;;;;;;5053137;28;20033;-68
2021/10/06 05:11:31;;;;;;;8.07;3.92;;;10.80;99.90;;;;;;5027261;28;20060;-68
2021/10/06 05:13:58;;;;;;;6.28;4.22;;;10.80;99.90;;;;;;5051340;28;20048;-68
2021/10/06 05:16:25;;;;;;;7.38;3.22;;;10.80;99.90;;;;;;5064062;28;20482;-68
2021/10/06 05:18:51;;;;;;;5.28;3.20;;;10.80;99.90;;;;;;5038503;28;20044;-68
2021/10/06 05:21:17;;;;;;;10.52;3.85;;;10.70;99.90;;;;;;5057790;28;20043;-68
2021/10/06 05:23:42;;;;;;;7.63;3.42;;;10.70;99.90;;;;;;5057166;28;20056;-68
2021/10/06 05:26:08;;;;;;;8.50;3.45;;;10.70;99.90;;;;;;5055130;28;20043;-68
2021/10/06 05:28:34;;;;;;;6.20;3.60;;;10.70;99.90;;;;;;5068590;28;20401;-68
2021/10/06 05:31:00;;;;;;;5.90;2.90;;;10.60;99.90;;;;;;5055825;28;20036;-68
2021/10/06 05:33:25;;;;;;;7.00;3.28;;;10.60;99.90;;;;;;5058413;28;20053;-68
2021/10/06 05:35:51;;;;;;;8.73;3.75;;;10.60;99.90;;;;;;5036300;28;20050;-68
2021/10/06 05:38:17;;;;;;;6.55;3.42;;;10.50;99.90;;;;;;5057862;28;20063;-68
2021/10/06 05:40:42;;;;;;;7.35;3.53;;;10.50;99.90;;;;;;5071354;28;20060;-68
2021/10/06 05:43:12;;;;;;;7.60;3.25;;;10.50;99.90;;;;;;5051065;28;20408;-68
2021/10/06 05:45:39;;;;;;;6.40;3.30;;;10.50;99.90;;;;;;5023493;28;20055;-68
2021/10/06 05:48:05;;;;;;;7.07;3.78;;;10.50;99.90;;;;;;5047114;28;20075;-67
2021/10/06 05:50:32;;;;;;;6.50;3.65;;;10.50;99.90;;;;;;5061745;28;20040;-68
2021/10/06 05:53:02;;;;;;;5.68;3.50;;;10.50;99.90;;;;;;5057800;28;20060;-68
2021/10/06 05:55:28;;;;;;;5.55;3.92;;;10.60;99.90;;;;;;5056404;28;20136;-68
2021/10/06 05:57:54;;;;;;;8.05;3.85;;;10.50;99.90;;;;;;5036947;28;20051;-68
2021/10/06 06:00:20;;;;;;;6.40;3.58;;;10.50;99.90;;;;;;5056448;28;20480;-68
2021/10/06 06:02:46;;;;;;;7.60;4.15;;;10.50;99.90;;;;;;5052493;28;20126;-68
2021/10/06 06:05:17;;;;;;;7.50;5.00;;;10.60;99.90;;;;;;5041558;28;20123;-67
2021/10/06 06:07:43;;;;;;;7.80;4.13;;;10.50;99.90;;;;;;5053630;28;20045;-68
2021/10/06 06:10:10;;;;;;;7.53;4.13;;;10.40;99.90;;;;;;5040955;28;20048;-68
2021/10/06 06:12:36;;;;;;;8.02;4.25;;;10.40;99.90;;;;;;5039331;28;20058;-66
2021/10/06 06:15:02;;;;;;;7.50;4.53;;;10.40;99.90;;;;;;5034629;28;20060;-66
2021/10/06 06:17:28;;;;;;;8.15;3.97;;;10.40;99.90;;;;;;5065672;28;20123;-66
2021/10/06 06:19:53;;;;;;;7.40;3.63;;;10.50;99.90;;;;;;5040111;28;20182;-67
2021/10/06 06:22:19;;;;;;;6.78;3.50;;;10.40;99.90;;;;;;5053726;28;20041;-67
2021/10/06 06:24:45;;;;;;;6.22;3.42;;;10.40;99.90;;;;;;5030720;28;20041;-67
2021/10/06 06:27:10;;;;;;;4.40;3.13;;;10.50;99.90;;;;;;5037922;28;20033;-67
2021/10/06 06:29:37;;;;;;;7.07;3.63;;;10.50;99.90;;;;;;5050309;28;20158;-66
2021/10/06 06:32:03;;;;;;;5.88;3.70;;;10.50;99.90;;;;;;5053013;28;20325;-66
2021/10/06 06:34:29;;;;;;;7.03;3.35;;;10.60;99.90;;;;;;5038766;28;20040;-66
2021/10/06 06:36:55;;;;;;;4.10;2.75;;;10.60;99.90;;;;;;5074886;28;20049;-67
2021/10/06 06:39:21;;;;;;;7.43;3.42;;;10.60;99.90;;;;;;5052916;28;20035;-67
2021/10/06 06:41:47;;;;;;;3.30;2.70;;;10.70;99.90;;;;;;5059948;28;20501;-67
2021/10/06 06:44:13;;;;;;;6.15;2.45;;;10.70;99.90;;;;;;5053721;28;20076;-66
2021/10/06 06:46:40;;;;;;;3.58;2.47;;;10.80;99.90;;;;;;5058524;28;20060;-66
2021/10/06 06:49:06;;;;;;;4.75;2.53;;;10.80;99.90;;;;;;5036329;28;20377;-66
2021/10/06 06:51:32;;;;;;;5.18;2.83;;;10.80;99.90;;;;;;5040151;28;20053;-67
2021/10/06 06:53:58;;;;;;;4.68;2.28;;;10.80;99.90;;;;;;5063284;28;20524;-67
2021/10/06 06:56:23;;;;;;;2.95;2.10;;;10.80;99.90;;;;;;5054551;28;20393;-67
2021/10/06 06:58:49;;;;;;;4.53;2.47;;;10.90;99.90;;;;;;5066604;28;20124;-67
2021/10/06 07:01:16;;;;;;;3.40;2.58;;;11.00;99.90;;;;;;5048813;28;20049;-66
2021/10/06 07:03:42;;;;;;;3.95;2.58;;;10.80;99.90;;;;;;5055348;28;20098;-67
2021/10/06 07:06:09;;;;;;;5.90;2.67;;;10.90;99.90;;;;;;5056465;28;20041;-67
2021/10/06 07:08:35;;;;;;;7.00;2.40;;;11.00;99.90;;;;;;5068629;28;20123;-67
2021/10/06 07:11:00;;;;;;;5.47;3.10;;;10.90;99.90;;;;;;5047500;28;20084;-67
2021/10/06 07:13:26;;;;;;;6.20;3.08;;;11.00;99.90;;;;;;5038043;28;20115;-67
2021/10/06 07:15:52;;;;;;;4.20;2.80;;;11.00;99.90;;;;;;5045526;28;20478;-67
2021/10/06 07:18:18;;;;;;;7.28;3.10;;;11.00;99.90;;;;;;5048000;28;20123;-67
2021/10/06 07:20:43;;;;;;;5.22;3.13;;;11.00;99.90;;;;;;5052111;28;20501;-67
2021/10/06 07:23:09;;;;;;;4.40;2.80;;;11.00;99.90;;;;;;5044540;28;20040;-67
2021/10/06 07:25:35;;;;;;;3.95;3.45;;;11.00;99.90;;;;;;5029731;28;20376;-67
2021/10/06 07:28:00;;;;;;;4.38;3.47;;;11.00;99.90;;;;;;5019269;28;20053;-67
2021/10/06 07:30:26;;;;;;;6.15;3.20;;;11.00;99.90;;;;;;5052731;28;20066;-68
2021/10/06 07:32:52;;;;;;;6.22;3.45;;;11.10;99.90;;;;;;5053249;28;20084;-68
2021/10/06 07:35:18;;;;;;;5.80;3.60;;;11.00;99.90;;;;;;5053456;28;20044;-66
2021/10/06 07:37:43;;;;;;;6.28;3.65;;;11.00;99.90;;;;;;5056426;28;20032;-66
2021/10/06 07:40:10;;;;;;;7.28;3.60;;;11.00;99.90;;;;;;5045211;28;20052;-65
2021/10/06 07:42:35;;;;;;;5.50;3.38;;;11.00;99.90;;;;;;5060127;28;20527;-66
2021/10/06 07:45:01;;;;;;;6.78;3.78;;;11.00;99.90;;;;;;5037409;28;20140;-66
2021/10/06 07:47:27;;;;;;;4.38;3.90;;;10.90;99.90;;;;;;5049256;28;20094;-66
2021/10/06 07:49:53;;;;;;;4.82;3.88;;;10.90;99.90;;;;;;5052942;28;20044;-66
2021/10/06 07:52:19;;;;;;;10.48;6.78;;;10.90;99.90;;;;;;5049986;28;20144;-66
2021/10/06 07:54:45;;;;;;;7.40;4.47;;;10.90;99.90;;;;;;5054627;28;20033;-66
2021/10/06 07:57:10;;;;;;;7.10;4.82;;;10.90;99.90;;;;;;5048104;28;20064;-66
2021/10/06 07:59:36;;;;;;;7.03;4.30;;;10.90;99.90;;;;;;5032389;28;20041;-66
2021/10/06 08:02:03;;;;;;;9.30;4.50;;;10.90;99.90;;;;;;5051853;28;20032;-67
2021/10/06 08:04:29;;;;;;;6.10;5.07;;;10.90;99.90;;;;;;5073279;28;20052;-67
2021/10/06 08:06:55;;;;;;;5.72;4.07;;;11.00;99.90;;;;;;5048282;28;20040;-67
2021/10/06 08:09:21;;;;;;;6.80;4.13;;;10.90;99.90;;;;;;5050525;28;20260;-66
2021/10/06 08:11:47;;;;;;;5.03;4.38;;;10.90;99.90;;;;;;5053871;28;20044;-66
2021/10/06 08:14:13;;;;;;;8.68;4.60;;;10.90;99.90;;;;;;5054194;28;20265;-66
2021/10/06 08:16:39;;;;;;;6.70;4.43;;;10.90;99.90;;;;;;5036938;28;20048;-66
2021/10/06 08:19:05;;;;;;;5.25;4.32;;;10.90;99.90;;;;;;5048023;28;20496;-67
2021/10/06 08:21:30;;;;;;;8.07;4.47;;;11.00;99.90;;;;;;5055010;28;20087;-66
2021/10/06 08:23:56;;;;;;;7.03;4.30;;;11.00;99.90;;;;;;5063340;28;20431;-66
2021/10/06 08:26:22;;;;;;;8.95;3.53;;;11.00;99.90;;;;;;5048979;28;20413;-66
2021/10/06 08:28:48;;;;;;;8.32;4.38;;;11.00;99.90;;;;;;5060484;28;20049;-66
2021/10/06 08:31:14;;;;;;;6.63;4.00;;;10.90;99.90;;;;;;5060385;28;20029;-66
2021/10/06 08:33:39;;;;;;;6.93;4.57;;;11.00;99.90;;;;;;5046985;28;20103;-66
2021/10/06 08:36:05;;;;;;;6.93;3.38;;;11.00;99.90;;;;;;5031821;28;20050;-66
2021/10/06 08:38:31;;;;;;;5.90;3.95;;;11.00;99.90;;;;;;5011590;28;20076;-66
2021/10/06 08:40:58;;;;;;;5.65;3.03;;;11.00;99.90;;;;;;5033863;28;20068;-67
2021/10/06 08:43:24;;;;;;;7.70;4.22;;;11.00;99.90;;;;;;5035450;28;20113;-66
2021/10/06 08:45:50;;;;;;;8.25;4.03;;;11.00;99.90;;;;;;5031325;28;20461;-66
2021/10/06 08:48:15;;;;;;;6.03;3.78;;;11.00;99.90;;;;;;5037675;28;20033;-67
2021/10/06 08:50:41;;;;;;;6.53;2.97;;;11.10;99.90;;;;;;5032451;28;20044;-67
2021/10/06 08:53:07;;;;;;;8.15;3.50;;;11.10;99.90;;;;;;5038832;28;20068;-66
2021/10/06 08:55:34;;;;;;;9.45;3.60;;;11.10;99.90;;;;;;5039060;28;20097;-66
2021/10/06 08:58:04;;;;;;;6.32;3.50;;;11.20;99.90;;;;;;5043985;28;23036;-67
2021/10/06 09:00:31;;;;;;;6.25;4.13;;;11.20;99.90;;;;;;5031517;28;20509;-66
2021/10/06 09:03:06;;;;;;;6.10;3.70;;;11.30;99.90;;;;;;5036909;28;20120;-66
2021/10/06 09:05:32;;;;;;;7.68;3.92;;;11.30;99.90;;;;;;5034750;28;20049;-66
2021/10/06 09:08:04;;;;;;;5.43;3.50;;;11.40;99.90;;;;;;5038441;28;20052;-66
2021/10/06 09:10:34;;;;;;;8.35;3.15;;;11.40;99.90;;;;;;5035007;28;20123;-67
2021/10/06 09:13:02;;;;;;;6.32;3.42;;;11.50;99.90;;;;;;5036722;28;20117;-66
2021/10/06 09:15:48;;;;;;;6.63;3.20;;;11.60;99.90;;;;;;5032102;28;20049;-67
2021/10/06 09:18:17;;;;;;;6.22;2.65;;;11.70;99.90;;;;;;5036690;28;20053;-67
2021/10/06 09:20:43;;;;;;;7.32;3.38;;;11.70;99.90;;;;;;5032085;28;20056;-66
2021/10/06 09:23:12;;;;;;;5.20;3.65;;;11.70;99.90;;;;;;5038179;28;20120;-66
2021/10/06 09:25:51;;;;;;;6.40;3.17;;;11.80;99.90;;;;;;5032103;28;20056;-66
2021/10/06 09:28:21;;;;;;;5.18;3.22;;;11.80;99.90;;;;;;5036926;28;20041;-66
2021/10/06 09:30:55;;;;;;;7.35;2.95;;;11.90;99.90;;;;;;5030883;28;20029;-66
2021/10/06 09:33:21;;;;;;;8.40;2.80;;;12.00;99.90;;;;;;5032759;28;20060;-66
2021/10/06 09:35:51;;;;;;;6.15;2.67;;;12.10;99.90;;;;;;5032603;28;20270;-66
2021/10/06 09:38:17;;;;;;;8.57;2.90;;;12.10;99.90;;;;;;5038187;28;20170;-66
2021/10/06 09:40:43;;;;;;;5.10;2.40;;;12.10;99.90;;;;;;5026793;28;20128;-66
2021/10/06 09:43:08;;;;;;;5.18;1.83;;;12.10;99.90;;;;;;5035183;28;20508;-66
2021/10/06 09:45:36;;;;;;;6.32;2.28;;;12.10;99.90;;;;;;5037031;28;20068;-66
2021/10/06 09:48:02;;;;;;;5.55;2.40;;;12.20;99.90;;;;;;5036414;28;20231;-66
2021/10/06 09:50:28;;;;;;;5.25;2.25;;;12.20;99.90;;;;;;5037542;28;20119;-66
2021/10/06 09:52:54;;;;;;;5.90;2.03;;;12.20;99.90;;;;;;5038035;28;20129;-66
2021/10/06 09:55:20;;;;;;;4.82;2.35;;;12.30;99.90;;;;;;5036236;28;20429;-67
2021/10/06 09:57:46;;;;;;;4.78;2.00;;;12.40;99.90;;;;;;5028662;28;20357;-67
2021/10/06 10:00:18;;;;;;;4.32;1.63;;;12.50;99.90;;;;;;5035165;28;20041;-66
2021/10/06 10:02:45;;;;;;;5.65;2.22;;;12.60;99.90;;;;;;5030606;28;20049;-66
2021/10/06 10:05:12;;;;;;;3.90;2.17;;;12.90;99.90;;;;;;5035269;28;20471;-66
2021/10/06 10:07:38;;;;;;;3.00;1.90;;;13.20;99.90;;;;;;5029112;28;20863;-66
2021/10/06 10:10:07;;;;;;;5.32;2.38;;;13.40;99.90;;;;;;5036670;28;20418;-66
2021/10/06 10:12:33;;;;;;;4.22;1.73;;;13.50;99.90;;;;;;5029533;28;20077;-66
2021/10/06 10:15:00;;;;;;;3.47;1.65;;;13.50;99.90;;;;;;5047861;28;20437;-66
2021/10/06 10:17:26;;;;;;;4.00;1.63;;;13.50;99.90;;;;;;5026384;28;20151;-67
2021/10/06 10:19:55;;;;;;;3.78;1.73;;;13.50;99.90;;;;;;5044773;28;20132;-67
2021/10/06 10:22:22;;;;;;;2.70;1.10;;;13.50;99.90;;;;;;5035752;28;20478;-67
2021/10/06 10:24:50;;;;;;;3.45;1.48;;;13.50;99.90;;;;;;5042773;28;20040;-67
2021/10/06 10:27:19;;;;;;;3.55;1.10;;;13.50;99.90;;;;;;5036118;28;20055;-67
2021/10/06 10:29:50;;;;;;;9.48;1.58;;;13.50;99.90;;;;;;5042820;28;20037;-66
2021/10/06 10:32:18;;;;;;;4.68;1.58;;;13.50;99.90;;;;;;5039518;28;20378;-67
2021/10/06 10:34:56;;;;;;;5.22;1.48;;;13.50;99.90;;;;;;5067177;28;20159;-66
2021/10/06 10:37:47;;;;;;;3.55;1.13;;;13.50;99.90;;;;;;5065454;28;20070;-66
2021/10/06 10:40:32;;;;;;;5.97;2.10;;;13.50;99.90;;;;;;5069980;28;20628;-67
2021/10/06 10:43:03;;;;;;;;;;;13.70;99.90;;;;;;5051445;28;20497;-67
2021/10/06 10:45:36;;;;;;;2.75;1.08;;;13.70;99.90;;;;;;5058380;28;19923;-67
2021/10/06 10:48:03;;;;;;;2.53;1.10;;;13.80;99.90;;;;;;5047005;28;20032;-67
2021/10/06 10:50:44;;;;;;;4.57;1.30;;;13.90;99.90;;;;;;5043252;28;20036;-67
2021/10/06 10:53:15;;;;;;;4.18;1.05;;;14.00;99.90;;;;;;5051743;28;20040;-67
2021/10/06 10:55:46;;;;;;;6.18;1.63;;;14.10;99.90;;;;;;5051268;28;20045;-67
2021/10/06 10:58:32;;;;;;;2.40;0.80;;;14.30;99.90;;;;;;5059942;28;20048;-66
2021/10/06 11:01:12;;;;;;;3.03;0.80;;;14.40;99.90;;;;;;5055633;28;20163;-66
2021/10/06 11:04:06;;;;;;;6.25;1.25;;;14.60;99.90;;;;;;5048923;28;20047;-67
2021/10/06 11:06:37;;;;;;;2.53;0.77;;;14.80;99.90;;;;;;5060840;28;20112;-67
2021/10/06 11:09:31;;;;;;;2.33;0.85;;;15.10;99.90;;;;;;5035115;28;20053;-67
2021/10/06 11:12:06;;;;;;;3.55;0.70;;;15.20;99.90;;;;;;5069456;28;20044;-67
2021/10/06 11:14:40;;;;;;;1.45;0.50;;;15.30;99.90;;;;;;5045635;28;20055;-67
2021/10/06 11:17:16;;;;;;;1.63;0.90;;;15.30;99.90;;;;;;5059657;28;20040;-67
2021/10/06 11:19:48;;;;;;;3.90;0.80;;;15.40;99.90;;;;;;5032547;28;20060;-67
2021/10/06 11:22:23;;;;;;;3.17;0.57;;;15.50;99.90;;;;;;5048630;28;20044;-67
2021/10/06 11:24:58;;;;;;;2.38;0.60;;;15.60;99.90;;;;;;5045590;28;20448;-67
2021/10/06 11:27:25;;;;;;;2.85;0.60;;;16.40;99.90;;;;;;5035542;28;20067;-67
2021/10/06 11:29:55;;;;;;;1.65;0.40;;;17.60;99.90;;;;;;5054274;28;20086;-67
2021/10/06 11:32:20;;;;;;;4.35;0.57;;;18.80;99.90;;;;;;5059826;28;20040;-67
2021/10/06 11:34:48;;;;;;;3.10;0.82;;;20.00;99.90;;;;;;5054063;28;20121;-67
2021/10/06 11:37:22;;;;;;;1.20;0.40;;;20.20;99.90;;;;;;5053092;28;20064;-67
2021/10/06 11:39:49;;;;;;;3.33;0.73;;;20.50;98.60;;;;;;5054104;28;20041;-67
2021/10/06 11:42:16;;;;;;;2.80;0.45;;;21.00;96.60;;;;;;5043798;28;20477;-67
2021/10/06 11:44:42;;;;;;;2.08;0.43;;;20.80;96.10;;;;;;5052891;28;20095;-67
2021/10/06 11:47:10;;;;;;;2.25;0.40;;;20.40;95.40;;;;;;5067219;28;20112;-67
2021/10/06 11:49:38;;;;;;;2.25;0.40;;;20.10;96.10;;;;;;5045533;28;20482;-67
2021/10/06 11:52:05;;;;;;;2.63;0.50;;;20.90;96.60;;;;;;5048503;28;20080;-67
2021/10/06 11:54:31;;;;;;;2.47;0.60;;;21.90;93.50;;;;;;5035004;28;20052;-67
2021/10/06 11:56:59;;;;;;;1.48;0.20;;;22.70;90.90;;;;;;5045702;28;20410;-67
2021/10/06 11:59:27;;;;;;;1.85;0.40;;;23.30;88.00;;;;;;5051735;28;20497;-67
2021/10/06 12:02:01;;;;;;;2.03;0.40;;;23.60;83.90;;;;;;5053265;28;20044;-67
2021/10/06 12:04:34;;;;;;;1.17;0.32;;;23.80;79.90;;;;;;5055362;28;20037;-67
2021/10/06 12:07:05;;;;;;;3.20;0.30;;;23.90;78.80;;;;;;5054754;28;20045;-67
2021/10/06 12:09:49;;;;;;;2.55;0.30;;;24.10;75.90;;;;;;5052290;28;20077;-67
2021/10/06 12:12:19;;;;;;;2.03;0.40;;;24.40;74.10;;;;;;5050488;28;20051;-67
2021/10/06 12:14:46;;;;;;;2.47;0.35;;;24.50;73.90;;;;;;5055640;28;20113;-67
2021/10/06 12:17:22;;;;;;;2.92;0.43;;;24.80;71.20;;;;;;5048126;28;20028;-67
2021/10/06 12:20:03;;;;;;;3.70;0.50;;;24.80;69.50;;;;;;5055582;28;20029;-67
2021/10/06 12:22:39;;;;;;;2.10;0.50;;;25.10;70.00;;;;;;5049521;28;20090;-67
2021/10/06 12:25:20;;;;;;;1.15;0.30;;;25.20;68.60;;;;;;5054301;28;20041;-68
2021/10/06 12:27:51;;;;;;;4.45;0.40;;;24.70;65.60;;;;;;5058504;28;20040;-68
2021/10/06 12:30:22;;;;;;;7.28;5.55;;;23.90;68.90;;;;;;5072263;28;20527;-67
2021/10/06 12:32:51;;;;;;;1.45;0.40;;;23.10;70.20;;;;;;5062495;28;20049;-67
2021/10/06 12:35:21;;;;;;;1.88;0.43;;;22.10;71.70;;;;;;5056026;28;20531;-67
2021/10/06 12:37:53;;;;;;;1.55;0.40;;;21.30;74.20;;;;;;5069039;28;20045;-67
2021/10/06 12:40:39;;;;;;;2.00;0.40;;;20.50;76.10;;;;;;5057580;28;20047;-67
2021/10/06 12:43:17;;;;;;;1.63;0.35;;;20.00;79.20;;;;;;5070524;28;20489;-67
2021/10/06 12:46:15;;;;;;;2.95;0.38;;;20.40;79.80;;;;;;5055763;28;20043;-67
2021/10/06 12:48:50;;;;;;;1.42;0.30;;;21.50;80.10;;;;;;5052078;28;20578;-67